x

Upper Potomac, Md (44061) Weather Station

9:40pm - Thu 27th Nov 2014 All times are EST. -5 hours from GMT.

  • Wind
    7mph, 11mph gusts
  • Air Temp 40°f
  • Sea Pressure 1021.4mb
  • Upper Potomac, Md
  • Upper Potomac, Md

More Historic Weather Station data

Upgrade to MSW Pro to gain access to the past 30 days of data for over 8000 Wavebouys and Weather Stations around the globe.

Join Pro

Comparision Forecast

View Surf forecast
   
Thu 11/27 9:40pm 7 11 mph 1021.4mb - 40f
9:30pm 7 9 mph 1021.3mb - 40f
9:20pm 7 11 mph 1021.1mb - 40f
9:10pm 9 13 mph 1021.1mb - 40f
9:00pm 11 13 mph 1021mb 44f 40f
8:50pm 9 13 mph 1020.9mb - 39f
8:40pm 9 11 mph 1020.8mb - 39f
8:30pm 7 11 mph 1020.8mb - 39f
8:20pm 4 9 mph 1020.7mb - 39f
8:10pm 4 9 mph 1020.8mb - 40f
8:00pm 7 11 mph 1020.7mb 45f 40f
7:50pm 4 11 mph 1020.6mb - 40f
7:40pm 7 9 mph 1020.6mb - 40f
7:30pm 7 9 mph 1020.4mb - 40f
7:20pm 7 9 mph 1020.4mb - 40f
7:10pm 7 11 mph 1020.3mb - 40f
7:00pm 7 11 mph 1020.2mb 43f 40f
6:50pm 9 13 mph 1020.2mb - 40f
6:40pm 9 11 mph 1020mb - 41f
6:30pm 9 13 mph 1019.9mb - 41f
6:20pm 9 13 mph 1019.8mb - 41f
6:10pm 11 18 mph 1019.7mb - 41f
6:00pm 11 16 mph 1019.5mb 43f 41f
5:50pm 9 16 mph 1019.4mb - 41f
5:40pm 11 18 mph 1019.3mb - 41f
5:30pm 11 18 mph 1019.2mb - 42f
5:20pm 11 18 mph 1019mb - 42f
5:10pm 13 18 mph 1018.9mb - 42f
5:00pm 11 18 mph 1018.8mb 43f 43f
4:50pm 11 16 mph 1018.6mb - 43f
4:40pm 11 16 mph 1018.4mb - 43f
4:30pm 11 13 mph 1018.3mb - 44f
4:20pm 11 20 mph 1018.1mb - 44f
4:10pm 9 16 mph 1017.9mb - 44f
4:00pm 9 13 mph 1017.8mb 44f 44f
3:50pm 13 18 mph 1017.7mb - 44f
3:40pm 11 18 mph 1017.5mb - 45f
3:30pm 13 20 mph 1017.5mb - 45f
3:20pm 16 20 mph 1017.4mb - 46f
3:10pm 13 18 mph 1017.3mb - 46f
3:00pm 9 13 mph 1017.2mb 44f 46f
2:50pm 9 16 mph 1017.2mb - 46f
2:40pm 9 16 mph 1017.1mb - 46f
2:30pm 11 18 mph 1017mb - 45f
2:20pm 9 16 mph 1017.1mb - 45f
2:10pm 9 11 mph 1017mb - 45f
2:00pm 7 13 mph 1017mb 45f 45f
1:50pm 7 11 mph 1017mb - 45f
1:40pm 9 11 mph 1017.1mb - 44f
1:30pm 9 16 mph 1017.1mb - 44f
1:20pm 7 11 mph 1017.1mb - 44f
1:10pm 9 13 mph 1017.2mb - 44f
1:00pm 11 16 mph 1017.2mb 46f 43f
12:50pm 11 16 mph 1017.2mb - 43f
12:40pm 11 13 mph 1017.2mb - 43f
12:30pm 9 16 mph 1017.1mb - 44f
12:20pm 4 11 mph 1017.1mb - 43f
12:10pm 2 4 mph 1017.1mb - 43f
12:00pm 2 4 mph 1017.1mb 46f 42f
11:50am 4 7 mph 1017.2mb - 42f
11:40am 4 7 mph 1017.3mb - 42f
11:30am 4 7 mph 1017.5mb - 42f
11:20am 4 7 mph 1017.6mb - 42f
11:10am 4
mph
1017.5mb - 41f
11:00am 4 7 mph 1017.6mb 45f 41f
10:50am 4 7 mph 1017.7mb - 40f
10:40am 4 7 mph 1017.8mb - 41f
10:30am 4 7 mph 1017.8mb - 40f
10:20am 4
mph
1017.9mb - 40f
10:10am 4 7 mph 1017.8mb - 40f
10:00am 4 7 mph 1017.9mb 45f 40f
9:50am 4 7 mph 1017.9mb - 40f
9:40am 4 7 mph 1017.8mb - 40f
9:30am 2 4 mph 1017.8mb - 39f
9:20am  -  2 mph 1017.7mb - 39f
9:10am 2 4 mph 1017.7mb - 39f
9:00am 2 4 mph 1017.7mb 44f 39f
8:50am 2 4 mph 1017.6mb - 39f
8:40am 2
mph
1017.5mb - 38f
8:30am  -  2 mph 1017.3mb - 38f
8:20am 4
mph
1017.4mb - 38f
8:10am 4 7 mph 1017.3mb - 38f
8:00am 7
mph
1017.2mb 44f 39f
7:50am 2 4 mph 1017.1mb - 39f
7:40am 4
mph
1017mb - 39f
7:30am 2 4 mph 1016.9mb - 39f
7:20am 2 4 mph 1016.8mb - 39f
7:10am 4
mph
1016.8mb - 39f
7:00am 4
mph
1016.8mb 43f 39f
6:50am 2 4 mph 1016.8mb - 39f
6:40am 2 4 mph 1016.7mb - 39f
6:30am 2 4 mph 1016.8mb - 39f
6:20am  -  4 mph 1016.8mb - 38f
6:10am  -  mph 1016.8mb - 38f
6:00am  -  mph 1016.8mb 44f 38f
5:50am  -  mph 1016.8mb - 38f
5:40am  -  mph 1016.6mb - 38f
5:30am  -  2 mph 1016.6mb - 38f
5:20am 2
mph
1016.6mb - 38f
5:10am 2
mph
1016.6mb - 38f
5:00am 2 4 mph 1016.5mb 44f 38f
4:50am 4 7 mph 1016.5mb - 38f
4:40am 4
mph
1016.4mb - 38f
4:30am 2 4 mph 1016.4mb - 38f
4:20am  -  4 mph 1016.4mb - 38f
4:10am 2 4 mph 1016.3mb - 38f
4:00am 2 4 mph 1016.2mb 44f 38f
3:50am 2 4 mph 1016.4mb - 38f
3:40am  -  2 mph 1016.4mb - 38f
3:30am  -  mph 1016.3mb - 38f
3:20am 2 4 mph 1016.5mb - 38f
3:10am 4 7 mph 1016.5mb - 38f
3:00am 7 9 mph 1016.5mb 44f 38f
2:50am 7 9 mph 1016.5mb - 38f
2:40am 7
mph
1016.5mb - 38f
2:30am 4 9 mph 1016.7mb - 38f
2:20am 7 11 mph 1016.8mb - 38f
2:10am 7 9 mph 1016.6mb - 38f
2:00am 7 9 mph 1016.6mb 44f 38f
1:50am 9 11 mph 1016.6mb - 38f
1:40am 9 11 mph 1016.5mb - 38f
1:30am 9 13 mph 1016.5mb - 38f
1:20am 9 11 mph 1016.2mb - 38f
1:10am 4 9 mph 1015.8mb - 38f
1:00am 4
mph
1015.8mb 46f 38f
12:50am 4 7 mph 1015.9mb - 38f
12:40am 7
mph
1016mb - 38f
12:30am 4 7 mph 1015.9mb - 38f
12:20am 4 7 mph 1015.9mb - 38f
12:10am 4 7 mph 1015.8mb - 38f
12:00am 7
mph
1016mb 46f 38f
Wed 11/26 11:50pm 7 9 mph 1016.1mb - 38f
11:40pm 4 9 mph 1016.1mb - 38f
11:30pm 7 9 mph 1016mb - 38f
11:20pm 7 9 mph 1016.2mb - 38f
11:10pm 7 9 mph 1016.3mb - 39f
11:00pm 7 9 mph 1016.3mb 45f 39f
10:50pm 9 11 mph 1016.2mb - 39f
10:40pm 7 11 mph 1016.2mb - 38f
10:30pm 9 11 mph 1016.2mb - 38f
10:20pm 9 13 mph 1016mb - 38f
10:10pm 9 13 mph 1016mb - 38f
10:00pm 11 16 mph 1015.9mb 46f 38f
9:50pm 7 11 mph 1015.7mb - 38f
9:40pm 7 11 mph 1015.4mb - 38f
9:30pm 7 9 mph 1015.2mb - 38f
9:20pm 9 13 mph 1015.1mb - 38f
9:10pm 9 13 mph 1014.9mb - 37f
9:00pm 9 13 mph 1014.8mb 46f 37f
8:50pm 9 13 mph 1014.8mb - 37f
8:40pm 9 13 mph 1014.6mb - 37f
8:30pm 9 11 mph 1014.5mb - 37f
8:20pm 7 9 mph 1014.4mb - 37f
8:10pm 7 9 mph 1014.2mb - 37f
8:00pm 7 9 mph 1014.2mb 46f 37f
7:50pm 9 11 mph 1014.3mb - 37f
7:40pm 7 11 mph 1014.3mb - 37f
7:30pm 7 11 mph 1014.3mb - 37f
7:20pm 7 11 mph 1014.3mb - 37f
7:10pm 7 11 mph 1014.1mb - 37f
7:00pm 7 11 mph 1014.1mb 45f 37f
6:50pm 7 11 mph 1013.9mb - 37f
6:40pm 9 13 mph 1014mb - 37f
6:30pm 7 11 mph 1014.3mb - 37f
6:20pm 7 11 mph 1014.3mb - 37f
6:10pm 7 11 mph 1014.3mb - 37f
6:00pm 7 9 mph 1014.4mb 44f 37f
5:50pm 7 9 mph 1014.5mb - 36f
5:40pm 4 9 mph 1014.5mb - 36f
5:30pm 9 11 mph 1014.5mb - 36f
5:20pm 9 11 mph 1014.5mb - 36f
5:10pm 9 13 mph 1014.5mb - 36f
5:00pm 7 11 mph 1014.3mb 45f 36f
4:50pm 9 11 mph 1014.2mb - 36f
4:40pm 9 13 mph 1014mb - 36f
4:30pm 9 13 mph 1014.3mb - 36f
4:20pm 9 13 mph 1014.1mb - 36f
4:10pm 9 13 mph 1014.1mb - 36f
4:00pm 11 16 mph 1013.8mb 45f 36f
3:50pm 9 13 mph 1013.6mb - 36f
3:40pm 11 16 mph 1013.5mb - 36f
3:30pm 11 16 mph 1013.4mb - 36f
3:20pm 11 16 mph 1013.1mb - 36f
3:10pm 13 22 mph 1012.6mb - 36f
3:00pm 11 16 mph 1012.6mb 45f 35f
2:50pm 13 20 mph 1012.7mb - 36f
2:40pm 13 18 mph 1012.5mb - 36f
2:30pm 11 18 mph 1012.5mb - 37f
2:20pm 11 16 mph 1012.3mb - 37f
2:10pm 13 18 mph 1012.1mb - 38f
2:00pm 13 20 mph 1012.1mb 46f 38f
1:50pm 13 18 mph 1012.4mb - 38f
1:40pm 13 18 mph 1012.9mb - 38f
1:30pm 13 20 mph 1012.9mb - 38f
1:20pm 13 18 mph 1012.8mb - 38f
1:10pm 13 18 mph 1012.7mb - 37f
1:00pm 13 20 mph 1012.6mb 46f 36f
12:50pm 11 18 mph 1013.2mb - 36f
12:40pm 11 16 mph 1013.7mb - 36f
12:30pm 11 16 mph 1013.8mb - 36f
12:20pm 11 16 mph 1014.4mb - 36f
12:10pm 9 13 mph 1015.1mb - 35f
12:00pm 9 11 mph 1015mb 47f 35f
11:50am 11 16 mph 1014.8mb - 35f
11:40am 11 34 mph 1015.6mb - 35f
11:30am 9 13 mph 1016.4mb - 35f
11:20am  -  mph 1017.1mb - 36f
11:10am  -  mph 1017.3mb - 37f
11:00am  -  mph 1017.5mb 46f 37f
10:50am 9 13 mph 1017.7mb - 38f
10:40am  -  mph 1017.4mb - 39f
10:30am 9 11 mph 1017.6mb - 39f
10:20am 11 34 mph 1018mb - 39f
10:10am 9 13 mph 1017.7mb - 39f
10:00am 11 13 mph 1017.5mb 46f 39f
9:50am 11 16 mph 1017.9mb - 40f
9:40am 9 13 mph 1018.3mb - 40f
9:30am 11 13 mph 1018.2mb - 40f
9:20am 13 18 mph 1017.7mb - 40f
9:10am 13 20 mph 1017.7mb - 41f
9:00am 13 20 mph 1018mb 46f 41f
8:50am 9 16 mph 1018.7mb - 42f
8:40am 9 13 mph 1019.1mb - 42f
8:30am 11 16 mph 1018.7mb - 42f
8:20am 11 18 mph 1017.9mb - 42f
8:10am 11 16 mph 1017.2mb - 43f
8:00am 11 18 mph 1017.4mb 46f 43f
7:50am 9 16 mph 1018.2mb - 43f
7:40am 9 13 mph 1017.9mb - 44f
7:30am 13 18 mph 1017.4mb - 44f
7:20am 9 13 mph 1017.9mb - 44f
7:10am 9 11 mph 1018.2mb - 44f
7:00am 7 11 mph 1018.1mb 47f 44f
6:50am 7 9 mph 1018.6mb - 44f
6:40am 7 9 mph 1018.6mb - 44f
6:30am 4 7 mph 1018.6mb - 44f
6:20am 4 9 mph 1018.3mb - 44f
6:10am 4 7 mph 1018.4mb - 44f
6:00am 4 9 mph 1018.5mb 46f 45f
5:50am 4 7 mph 1018.7mb - 45f
5:40am 4 7 mph 1018.6mb - 45f
5:30am 4 7 mph 1018.4mb - 46f
5:20am 4 7 mph 1017.9mb - 46f
5:10am 7 9 mph 1017.8mb - 46f
5:00am 7 9 mph 1017.7mb 46f 46f
4:50am 4 7 mph 1017.8mb - 46f
4:40am 2 4 mph 1017.9mb - 47f
4:30am 4 7 mph 1017.5mb - 47f
4:20am 4
mph
1017.5mb - 47f
4:10am 4 7 mph 1017.6mb - 48f
4:00am 4 7 mph 1017.7mb 46f 47f
3:50am 4 7 mph 1017.9mb - 47f
3:40am 7 9 mph 1018mb - 48f
3:30am 7
mph
1018.4mb - 48f
3:20am 7 9 mph 1018.4mb - 48f
3:10am 7 9 mph 1018.6mb - 48f
3:00am 9 11 mph 1018.6mb 46f 49f
2:50am 9 11 mph 1019mb - 49f
2:40am 7 9 mph 1019.4mb - 50f
2:30am 7 9 mph 1019.5mb - 49f
2:20am 4 9 mph 1019.6mb - 49f
2:10am 2 7 mph 1019.9mb - 49f
2:00am 7 9 mph 1020.4mb 46f 49f
1:50am 4 7 mph 1020.5mb - 48f
1:40am  -  4 mph 1020.8mb - 48f
1:30am  -  mph 1020.9mb - 48f
1:20am  -  2 mph 1020.6mb - 48f
1:10am  -  mph 1020.5mb - 48f
1:00am 2 4 mph 1020.6mb 47f 48f
12:50am  -  2 mph 1020.7mb - 48f
12:40am 2
mph
1020.8mb - 48f
12:30am 2 4 mph 1020.8mb - 48f
12:20am 2 4 mph 1020.8mb - 47f
12:10am  -  2 mph 1021.3mb - 47f
12:00am 2
mph
1021.1mb 47f 47f
Tue 11/25 11:50pm  -  2 mph 1021mb - 47f
11:40pm  -  mph 1021mb - 47f
11:30pm  -  mph 1020.8mb - 47f
11:20pm  -  mph 1020.5mb - 48f
11:10pm 2 4 mph 1020.5mb - 48f
11:00pm 4
mph
1021mb 46f 47f
10:50pm 2 4 mph 1020.8mb - 47f
10:40pm 2 4 mph 1020.4mb - 47f
10:30pm  -  2 mph 1020.1mb - 47f
10:20pm  -  mph 1020.5mb - 47f
10:10pm  -  mph 1020.6mb - 47f
10:00pm  -  mph 1020.6mb 46f 47f
9:50pm  -  2 mph 1020.5mb - 47f
9:40pm  -  2 mph 1020.4mb - 47f
9:30pm  -  mph 1020.1mb - 47f
9:20pm  -  mph 1020mb - 47f
9:10pm  -  mph 1019.9mb - 47f
9:00pm  -  mph 1020mb 46f 47f
8:50pm  -  mph 1020.2mb - 47f
8:40pm  -  mph 1020.2mb - 47f
8:30pm  -  2 mph 1020mb - 47f
8:20pm  -  2 mph 1019.8mb - 47f
8:10pm 2
mph
1019.7mb - 47f
8:00pm 2
mph
1019.8mb 46f 48f
7:50pm  -  2 mph 1019.8mb - 48f
7:40pm  -  2 mph 1019.7mb - 48f
7:30pm  -  2 mph 1019.6mb - 48f
7:20pm  -  2 mph 1019.5mb - 48f
7:10pm 2
mph
1019.3mb - 48f
7:00pm 2 4 mph 1019.4mb 46f 48f
6:50pm 2
mph
1019.1mb - 49f
6:40pm  -  mph 1019mb - 48f
6:30pm  -  mph 1018.9mb - 48f
6:20pm  -  2 mph 1018.7mb - 48f
6:10pm 2
mph
1018.6mb - 49f
6:00pm 2
mph
1018.6mb 47f 49f
5:50pm 2 4 mph 1018.4mb - 49f
5:40pm 4
mph
1018.1mb - 49f
5:30pm 4
mph
1018mb - 50f
5:10pm 4
mph
1018mb - 50f
5:00pm 4 7 mph 1018mb 46f 50f
4:50pm 4
mph
1017.8mb - 52f
4:40pm  -  4 mph 1017.5mb - 52f
4:30pm  -  mph 1017.4mb - 52f
4:20pm  -  mph 1017.2mb - 53f
4:10pm  -  mph 1017.3mb - 54f
4:00pm  -  mph 1017.4mb 46f 55f
3:50pm  -  mph 1017.2mb - 55f
3:40pm  -  mph 1017.1mb - 55f
3:30pm  -  mph 1017.1mb - 55f
3:20pm  -  mph 1017mb - 55f
3:10pm  -  mph 1017mb - 54f
3:00pm  -  mph 1016.9mb 46f 54f
2:50pm  -  mph 1016.9mb - 53f
2:40pm  -  2 mph 1017mb - 54f
2:30pm  -  mph 1017mb - 54f
2:20pm 2
mph
1016.8mb - 54f
2:10pm 2 4 mph 1016.8mb - 54f
2:00pm 4 7 mph 1016.9mb 46f 55f
1:40pm 4 7 mph 1017.3mb - 55f
1:30pm 4 7 mph 1017.2mb - 54f
1:20pm 4
mph
1017.2mb - 54f
1:10pm 4 9 mph 1017.2mb - 54f
1:00pm 4 7 mph 1017.3mb 46f 54f
12:50pm 7
mph
1017.6mb - 54f
12:40pm 7 9 mph 1017.6mb - 54f
12:30pm 7 11 mph 1017.8mb - 54f
12:20pm 7 9 mph 1018mb - 54f
12:10pm 4 9 mph 1018.2mb - 54f
12:00pm 7 11 mph 1018.2mb 46f 54f
11:50am 7 11 mph 1018mb - 54f
11:40am 7 9 mph 1018.1mb - 54f
11:30am 7 11 mph 1018.2mb - 54f
11:20am 7 11 mph 1018.3mb - 54f
11:10am 7 13 mph 1018.1mb - 54f
11:00am 7 11 mph 1018.1mb 46f 54f
10:50am 7 11 mph 1017.9mb - 54f
10:40am 7 13 mph 1017.8mb - 54f
10:30am 9 16 mph 1017.8mb - 54f
10:20am 7 11 mph 1017.8mb - 54f
10:10am 9 13 mph 1017.9mb - 54f
10:00am 7 11 mph 1018.2mb 46f 54f
9:50am 9 13 mph 1017.8mb - 54f
9:40am 7 11 mph 1017.4mb - 54f
9:30am 9 13 mph 1017.1mb - 54f
9:20am 7 11 mph 1017mb - 54f
9:10am 7 9 mph 1016.9mb - 54f
9:00am 9 13 mph 1016.9mb 46f 54f
8:50am 9 13 mph 1016.8mb - 54f
8:40am 9 16 mph 1016.8mb - 54f
8:30am 7 9 mph 1016.5mb - 54f
8:20am 7 13 mph 1016.5mb - 55f
8:10am 9 13 mph 1016.3mb - 55f
8:00am 9 16 mph 1015.9mb 46f 55f
7:50am 9 13 mph 1015.8mb - 55f
7:40am 9 20 mph 1015.5mb - 55f
7:30am 9 13 mph 1015.4mb - 55f
7:20am 11 20 mph 1015.1mb - 55f
7:10am 9 13 mph 1015mb - 55f
7:00am 9 13 mph 1014.9mb 46f 56f
6:50am 9 18 mph 1014.7mb - 56f
6:40am 9 16 mph 1014.5mb - 56f
6:30am 7 13 mph 1014.4mb - 56f
6:20am 9 13 mph 1014.3mb - 56f
6:10am 7 11 mph 1014.2mb - 57f
6:00am 9 16 mph 1014.2mb 46f 57f
5:50am 11 18 mph 1014.3mb - 57f
5:40am 9 13 mph 1013.9mb - 58f
5:30am 13 22 mph 1013.9mb - 59f
5:20am 9 16 mph 1013.6mb - 59f
5:10am 7 13 mph 1013.2mb - 59f
5:00am 9 13 mph 1013mb 46f 60f
4:50am 11 16 mph 1012.7mb - 60f
4:40am 13 20 mph 1012.5mb - 61f
4:30am 11 22 mph 1012.2mb - 62f
4:20am 11 18 mph 1011.9mb - 60f
4:10am 2 7 mph 1011.7mb - 56f
4:00am  -  4 mph 1011.2mb 46f 58f
3:50am 2
mph
1011mb - 56f
3:40am  -  2 mph 1011mb - 57f
3:30am 4
mph
1010.9mb - 58f
3:20am 4
mph
1010.8mb - 58f
3:10am 2 4 mph 1010.7mb - 57f
3:00am  -  4 mph 1010.6mb 46f 57f
2:50am  -  mph 1010.5mb - 57f
2:40am  -  2 mph 1010.3mb - 57f
2:30am  -  2 mph 1010mb - 57f
2:20am 2 4 mph 1009.8mb - 57f
2:10am 2 4 mph 1009.7mb - 56f
2:00am 2 4 mph 1009.4mb 46f 57f
1:50am 2
mph
1009.3mb - 59f
1:40am 2 4 mph 1009.1mb - 57f
1:30am 4 9 mph 1008.8mb - 56f
1:20am 9 11 mph 1008.6mb - 58f
1:10am 11
mph
1008.4mb - 58f
1:00am 9 11 mph 1008.2mb 46f 60f
12:50am 9 11 mph 1008.1mb - 62f
12:40am 7
mph
1008.2mb - 57f
12:30am 7 9 mph 1008.3mb - 56f
12:20am 9
mph
1008.3mb - 57f
12:10am 9 11 mph 1008.1mb - 58f
12:00am 9 13 mph 1008mb 46f 61f
Mon 11/24 11:50pm 11 16 mph 1008mb - 63f
11:40pm 11 16 mph 1008.1mb - 62f
11:30pm 13 18 mph 1008.1mb - 63f
11:20pm 13 18 mph 1008.2mb - 62f
11:10pm 16 20 mph 1008.4mb - 62f
11:00pm 16 20 mph 1008.4mb 45f 63f
10:50pm 16 18 mph 1008.3mb - 62f
10:40pm 16 20 mph 1008.3mb - 63f
10:30pm 16 20 mph 1008.2mb - 63f
10:20pm 16 22 mph 1008.2mb - 63f
10:10pm 13 20 mph 1008.1mb - 63f
10:00pm 13 20 mph 1008mb 45f 63f
9:50pm 11 18 mph 1007.9mb - 61f
9:40pm 9 16 mph 1007.5mb - 59f
9:30pm 9 11 mph 1007.3mb - 56f
9:20pm 9 11 mph 1007mb - 55f
9:10pm 9
mph
1006.6mb - 56f
9:00pm 7 9 mph 1006.3mb 44f 56f
8:50pm 9
mph
1006.3mb - 57f
8:40pm 9 11 mph 1006.3mb - 57f
8:30pm 11 13 mph 1006.3mb - 58f
8:20pm 11 13 mph 1006.4mb - 57f
8:10pm 11 13 mph 1006.2mb - 57f
8:00pm 11 13 mph 1006.1mb 44f 57f
7:50pm 11 13 mph 1005.9mb - 57f
7:40pm 11 13 mph 1005.7mb - 57f
7:30pm 11
mph
1005.6mb - 58f
7:20pm 11 13 mph 1005.7mb - 60f
7:10pm 11 13 mph 1005.5mb - 59f
7:00pm 11 13 mph 1005.2mb 45f 60f
6:50pm 11 13 mph 1004.9mb - 62f
6:40pm 11 16 mph 1004.7mb - 61f
6:30pm 9 11 mph 1004.8mb - 60f
6:20pm 11 13 mph 1004.9mb - 59f
6:10pm 13
mph
1004.9mb - 58f
6:00pm 11 13 mph 1004.8mb 45f 58f
5:50pm 11 13 mph 1004.6mb - 58f
5:40pm 11 13 mph 1004.5mb - 58f
5:30pm 11 13 mph 1004.4mb - 58f
5:20pm 11
mph
1004.2mb - 59f
5:10pm 9 11 mph 1004mb - 58f
5:00pm 11
mph
1004mb 46f 61f
4:50pm 13 16 mph 1003.8mb - 65f
4:40pm 16 20 mph 1003.7mb - 66f
4:30pm 13 18 mph 1003.6mb - 66f
4:20pm 13 18 mph 1003.6mb - 66f
4:10pm 13 16 mph 1003.6mb - 66f
4:00pm 13 20 mph 1003.5mb 45f 67f
3:50pm 13 18 mph 1003.4mb - 67f
3:40pm 16 20 mph 1003.3mb - 69f
3:30pm 13 18 mph 1003.2mb - 68f
3:20pm 13 18 mph 1003.1mb - 69f
3:10pm 13 20 mph 1003.1mb - 69f
3:00pm 13 18 mph 1003mb 44f 68f
2:50pm 13 16 mph 1003mb - 67f
2:40pm 18 22 mph 1002.8mb - 69f
2:30pm 16 20 mph 1002.6mb - 68f
2:20pm 13 22 mph 1002.5mb - 67f
2:10pm 16 22 mph 1002.5mb - 67f
2:00pm 18 22 mph 1002.5mb 44f 67f
1:50pm 18 27 mph 1002.4mb - 67f
1:40pm 18 27 mph 1002.4mb - 66f
1:30pm 16 20 mph 1002.6mb - 65f
1:20pm 16 22 mph 1002.8mb - 65f
1:10pm 16 25 mph 1003mb - 64f
1:00pm 13 20 mph 1003.4mb 44f 64f
12:50pm 13 20 mph 1003.5mb - 64f
12:40pm 16 22 mph 1003.6mb - 63f
12:30pm 16 20 mph 1003.7mb - 62f
12:20pm 16 20 mph 1003.8mb - 63f
11:50am 16 20 mph 1004.4mb - 62f
11:40am 16 20 mph 1004.6mb - 62f
11:30am 13 18 mph 1004.9mb - 62f
11:20am 13 18 mph 1005mb - 62f
11:10am 13 18 mph 1005.1mb - 62f
11:00am 16 20 mph 1005.2mb 44f 62f
10:50am 18 22 mph 1005.2mb - 63f
10:40am 18 25 mph 1005.1mb - 62f
10:30am 13 16 mph 1005.3mb - 62f
10:20am 16 20 mph 1005.3mb - 63f
10:10am 18 25 mph 1005.3mb - 63f
10:00am 18 27 mph 1005.4mb 43f 64f
9:50am 18 22 mph 1005.4mb - 63f
9:40am 18 22 mph 1005.4mb - 63f
9:30am 16 20 mph 1005.3mb - 62f
9:20am 16 22 mph 1005.2mb - 61f
9:10am 16 22 mph 1005.2mb - 60f
9:00am 13 18 mph 1005.1mb 43f 58f
8:50am 13 16 mph 1005.1mb - 59f
8:40am 13 16 mph 1005mb - 58f
8:30am 11 16 mph 1005mb - 58f
8:20am 13 20 mph 1004.9mb - 61f
8:10am 13 16 mph 1004.9mb - 59f
8:00am 11 16 mph 1004.9mb 43f 58f
7:50am 11 13 mph 1004.8mb - 56f
7:40am 11 13 mph 1004.7mb - 55f
7:30am 11
mph
1004.6mb - 55f
7:20am 9 11 mph 1004.7mb - 55f
7:10am 11 13 mph 1004.6mb - 56f
7:00am 11 13 mph 1004.5mb 43f 57f
6:50am 11 16 mph 1004.4mb - 56f
6:40am 11 16 mph 1004.3mb - 58f
6:30am 13 16 mph 1004.2mb - 58f
6:20am 13 16 mph 1004.1mb - 57f
6:10am 13 16 mph 1004mb - 56f
6:00am 13 18 mph 1004.1mb 43f 57f
5:50am 13 16 mph 1004.1mb - 57f
5:40am 13 18 mph 1004.1mb - 56f
5:30am 13
mph
1004mb - 56f
5:20am 11 16 mph 1004mb - 56f
5:10am 16 20 mph 1004.1mb - 58f
5:00am 18 20 mph 1004mb 43f 57f
4:50am 16 18 mph 1004mb - 57f
4:40am 16 20 mph 1004.2mb - 58f
4:30am 18 20 mph 1004.2mb - 58f
4:20am 18 22 mph 1004.3mb - 58f
4:10am 18 20 mph 1004.2mb - 58f
4:00am 18 22 mph 1004.3mb 44f 58f
3:50am 16 22 mph 1004.2mb - 57f
3:40am 13 18 mph 1004.2mb - 57f
3:30am 13 16 mph 1004.3mb - 58f
3:20am 13 18 mph 1004.3mb - 58f